createdAt,value
2018-01-30T00:00:05.738Z,8.75
2018-01-30T00:01:05.902Z,8.69
2018-01-30T00:02:06.520Z,8.69
2018-01-30T00:03:06.539Z,8.62
2018-01-30T00:04:06.324Z,8.62
2018-01-30T00:05:05.935Z,8.62
2018-01-30T00:06:05.906Z,8.62
2018-01-30T00:07:05.585Z,8.56
2018-01-30T00:08:06.113Z,8.50
2018-01-30T00:09:05.849Z,8.44
2018-01-30T00:10:05.574Z,8.38
2018-01-30T00:11:06.063Z,8.31
2018-01-30T00:12:06.230Z,8.31
2018-01-30T00:13:06.188Z,8.25
2018-01-30T00:14:06.238Z,8.25
2018-01-30T00:15:05.921Z,8.19
2018-01-30T00:16:11.503Z,8.19
2018-01-30T00:17:05.741Z,8.06
2018-01-30T00:18:06.321Z,8.06
2018-01-30T00:19:05.822Z,8.06
2018-01-30T00:20:06.720Z,8.00
2018-01-30T00:21:05.664Z,8.00
2018-01-30T00:22:06.775Z,7.94
2018-01-30T00:23:05.711Z,7.94
2018-01-30T00:24:06.497Z,7.94
2018-01-30T00:25:05.996Z,7.88
2018-01-30T00:26:05.908Z,7.81
2018-01-30T00:27:06.387Z,7.81
2018-01-30T00:28:06.230Z,7.81
2018-01-30T00:29:06.007Z,7.81
2018-01-30T00:30:06.057Z,7.75
2018-01-30T00:31:10.687Z,7.75
2018-01-30T00:32:06.309Z,7.75
2018-01-30T00:33:06.246Z,7.69
2018-01-30T00:34:05.912Z,7.69
2018-01-30T00:35:05.890Z,7.69
2018-01-30T00:36:06.299Z,7.69
2018-01-30T00:37:05.505Z,7.62
2018-01-30T00:38:06.396Z,7.62
2018-01-30T00:39:07.174Z,7.56
2018-01-30T00:40:05.916Z,7.56
2018-01-30T00:41:05.607Z,7.56
2018-01-30T00:42:05.901Z,7.50
2018-01-30T00:43:06.304Z,7.50
2018-01-30T00:44:05.579Z,7.50
2018-01-30T00:45:06.462Z,7.50
2018-01-30T00:46:06.377Z,7.50
2018-01-30T00:47:06.157Z,7.44
2018-01-30T00:48:05.832Z,7.44
2018-01-30T00:49:05.742Z,7.44
2018-01-30T00:50:06.630Z,7.44
2018-01-30T00:51:11.098Z,7.44
2018-01-30T00:52:05.868Z,7.38
2018-01-30T00:53:05.801Z,7.38
2018-01-30T00:54:06.472Z,7.38
2018-01-30T00:55:11.528Z,7.31
2018-01-30T00:56:06.501Z,7.31
2018-01-30T00:57:05.826Z,7.31
2018-01-30T00:58:05.690Z,7.31
2018-01-30T00:59:05.908Z,7.31
2018-01-30T01:00:06.385Z,7.25
2018-01-30T01:01:05.986Z,7.25
2018-01-30T01:02:05.964Z,7.25
2018-01-30T01:03:06.416Z,7.19
2018-01-30T01:04:06.150Z,7.19
2018-01-30T01:05:05.749Z,7.12
2018-01-30T01:06:06.538Z,7.12
2018-01-30T01:07:06.055Z,7.12
2018-01-30T01:08:06.304Z,7.12
2018-01-30T01:09:06.059Z,7.06
2018-01-30T01:10:06.056Z,7.06
2018-01-30T01:11:06.092Z,7.06
2018-01-30T01:12:05.510Z,7.06
2018-01-30T01:13:06.232Z,7.06
2018-01-30T01:14:05.833Z,7.00
2018-01-30T01:15:11.587Z,7.00
2018-01-30T01:16:11.665Z,7.00
2018-01-30T01:17:10.754Z,6.94
2018-01-30T01:18:06.730Z,6.94
2018-01-30T01:19:06.063Z,6.88
2018-01-30T01:20:05.987Z,6.88
2018-01-30T01:21:06.149Z,6.88
2018-01-30T01:22:05.506Z,6.81
2018-01-30T01:23:05.863Z,6.81
2018-01-30T01:24:05.826Z,6.81
2018-01-30T01:25:11.626Z,6.75
2018-01-30T01:26:06.233Z,6.75
2018-01-30T01:27:05.944Z,6.69
2018-01-30T01:28:06.059Z,6.69
2018-01-30T01:29:05.993Z,6.62
2018-01-30T01:30:06.145Z,6.62
2018-01-30T01:31:05.988Z,6.62
2018-01-30T01:32:06.379Z,6.62
2018-01-30T01:33:06.734Z,6.56
2018-01-30T01:34:06.545Z,6.56
2018-01-30T01:35:13.756Z,6.50
2018-01-30T01:36:06.304Z,6.50
2018-01-30T01:37:05.690Z,6.50
2018-01-30T01:38:06.371Z,6.50
2018-01-30T01:39:06.297Z,6.44
2018-01-30T01:40:06.081Z,6.50
2018-01-30T01:41:06.210Z,6.44
2018-01-30T01:42:05.920Z,6.44
2018-01-30T01:43:05.577Z,6.38
2018-01-30T01:44:06.222Z,6.38
2018-01-30T01:45:05.903Z,6.38
2018-01-30T01:46:06.301Z,6.38
2018-01-30T01:47:05.982Z,6.31
2018-01-30T01:48:06.383Z,6.31
2018-01-30T01:49:05.889Z,6.31
2018-01-30T01:50:06.472Z,6.25
2018-01-30T01:51:11.542Z,6.25
2018-01-30T01:52:06.215Z,6.25
2018-01-30T01:53:05.837Z,6.25
2018-01-30T01:54:10.761Z,6.19
2018-01-30T01:55:06.067Z,6.19
2018-01-30T01:56:05.972Z,6.19
2018-01-30T01:57:06.137Z,6.19
2018-01-30T01:58:06.257Z,6.19
2018-01-30T01:59:05.657Z,6.19
2018-01-30T02:00:07.279Z,6.19
2018-01-30T02:01:06.065Z,6.12
2018-01-30T02:02:05.982Z,6.12
2018-01-30T02:03:10.772Z,6.12
2018-01-30T02:04:05.822Z,6.12
2018-01-30T02:05:05.512Z,6.12
2018-01-30T02:06:12.313Z,6.06
2018-01-30T02:07:06.043Z,6.06
2018-01-30T02:08:05.741Z,6.06
2018-01-30T02:09:11.569Z,6.06
2018-01-30T02:10:06.478Z,6.00
2018-01-30T02:11:05.833Z,6.00
2018-01-30T02:12:05.655Z,6.00
2018-01-30T02:13:06.722Z,6.00
2018-01-30T02:14:06.457Z,5.94
2018-01-30T02:15:06.383Z,5.94
2018-01-30T02:16:06.321Z,5.94
2018-01-30T02:17:06.340Z,5.94
2018-01-30T02:18:05.930Z,5.94
2018-01-30T02:19:11.608Z,5.94
2018-01-30T02:20:06.543Z,5.88
2018-01-30T02:21:06.233Z,5.88
2018-01-30T02:22:06.812Z,5.88
2018-01-30T02:23:06.096Z,5.88
2018-01-30T02:24:06.136Z,5.88
2018-01-30T02:25:06.023Z,5.81
2018-01-30T02:26:06.069Z,5.81
2018-01-30T02:27:05.739Z,5.81
2018-01-30T02:28:06.462Z,5.81
2018-01-30T02:29:05.589Z,5.81
2018-01-30T02:30:10.774Z,5.81
2018-01-30T02:31:06.719Z,5.81
2018-01-30T02:32:10.875Z,5.81
2018-01-30T02:33:06.064Z,5.75
2018-01-30T02:34:06.155Z,5.75
2018-01-30T02:35:05.744Z,5.75
2018-01-30T02:36:05.576Z,5.75
2018-01-30T02:37:05.756Z,5.75
2018-01-30T02:38:06.059Z,5.75
2018-01-30T02:39:06.155Z,5.81
2018-01-30T02:40:05.903Z,5.75
2018-01-30T02:41:05.821Z,5.75
2018-01-30T02:42:05.990Z,5.81
2018-01-30T02:43:06.009Z,5.81
2018-01-30T02:44:05.663Z,5.81
2018-01-30T02:45:07.084Z,5.81
2018-01-30T02:46:05.908Z,5.81
2018-01-30T02:47:11.615Z,5.81
2018-01-30T02:48:06.655Z,5.81
2018-01-30T02:49:06.089Z,5.81
2018-01-30T02:50:05.970Z,5.81
2018-01-30T02:51:06.791Z,5.81
2018-01-30T02:52:05.492Z,5.88
2018-01-30T02:53:05.997Z,5.81
2018-01-30T02:54:05.662Z,5.88
2018-01-30T02:55:05.762Z,5.81
2018-01-30T02:56:05.592Z,5.81
2018-01-30T02:57:05.746Z,5.81
2018-01-30T02:58:06.714Z,5.81
2018-01-30T02:59:05.547Z,5.81
2018-01-30T03:00:06.560Z,5.81
2018-01-30T03:01:05.907Z,5.81
2018-01-30T03:02:05.662Z,5.81
2018-01-30T03:03:06.399Z,5.81
2018-01-30T03:04:05.830Z,5.81
2018-01-30T03:05:05.900Z,5.81
2018-01-30T03:06:05.676Z,5.81
2018-01-30T03:07:07.255Z,5.81
2018-01-30T03:08:06.783Z,5.81
2018-01-30T03:09:06.709Z,5.88
2018-01-30T03:10:05.996Z,5.81
2018-01-30T03:11:05.499Z,5.81
2018-01-30T03:12:05.688Z,5.81
2018-01-30T03:13:06.023Z,5.81
2018-01-30T03:14:11.600Z,5.81
2018-01-30T03:15:06.545Z,5.81
2018-01-30T03:16:05.821Z,5.81
2018-01-30T03:17:06.087Z,5.81
2018-01-30T03:18:05.825Z,5.81
2018-01-30T03:19:06.066Z,5.75
2018-01-30T03:20:06.064Z,5.81
2018-01-30T03:21:05.765Z,5.81
2018-01-30T03:22:06.329Z,5.75
2018-01-30T03:23:05.507Z,5.75
2018-01-30T03:24:05.906Z,5.75
2018-01-30T03:25:05.844Z,5.75
2018-01-30T03:26:05.813Z,5.75
2018-01-30T03:27:10.896Z,5.75
2018-01-30T03:28:05.496Z,5.75
2018-01-30T03:29:05.499Z,5.75
2018-01-30T03:30:06.061Z,5.75
2018-01-30T03:31:05.770Z,5.75
2018-01-30T03:32:05.542Z,5.75
2018-01-30T03:33:05.671Z,5.75
2018-01-30T03:34:06.371Z,5.75
2018-01-30T03:35:05.826Z,5.75
2018-01-30T03:36:05.753Z,5.75
2018-01-30T03:37:05.902Z,5.75
2018-01-30T03:38:06.322Z,5.75
2018-01-30T03:39:06.139Z,5.75
2018-01-30T03:40:06.232Z,5.69
2018-01-30T03:41:06.554Z,5.69
2018-01-30T03:42:05.821Z,5.69
2018-01-30T03:43:07.113Z,5.69
2018-01-30T03:44:06.068Z,5.69
2018-01-30T03:45:10.872Z,5.69
2018-01-30T03:46:05.509Z,5.69
2018-01-30T03:47:05.819Z,5.69
2018-01-30T03:48:06.064Z,5.69
2018-01-30T03:49:06.232Z,5.69
2018-01-30T03:50:05.821Z,5.69
2018-01-30T03:51:06.005Z,5.62
2018-01-30T03:52:06.453Z,5.62
2018-01-30T03:53:06.428Z,5.62
2018-01-30T03:54:06.005Z,5.62
2018-01-30T03:55:05.915Z,5.62
2018-01-30T03:56:05.687Z,5.62
2018-01-30T03:57:05.434Z,5.62
2018-01-30T03:58:06.079Z,5.56
2018-01-30T03:59:06.394Z,5.56
2018-01-30T04:00:05.653Z,5.56
2018-01-30T04:01:05.587Z,5.56
2018-01-30T04:02:06.221Z,5.50
2018-01-30T04:03:06.304Z,5.50
2018-01-30T04:04:06.093Z,5.50
2018-01-30T04:05:06.026Z,5.50
2018-01-30T04:06:05.674Z,5.50
2018-01-30T04:07:05.894Z,5.50
2018-01-30T04:08:05.503Z,5.44
2018-01-30T04:09:06.290Z,5.44
2018-01-30T04:10:06.379Z,5.44
2018-01-30T04:11:05.666Z,5.38
2018-01-30T04:12:05.756Z,5.38
2018-01-30T04:13:06.388Z,5.38
2018-01-30T04:14:06.403Z,5.38
2018-01-30T04:15:05.957Z,5.38
2018-01-30T04:16:06.602Z,5.31
2018-01-30T04:17:06.380Z,5.31
2018-01-30T04:18:06.447Z,5.31
2018-01-30T04:19:05.909Z,5.25
2018-01-30T04:20:10.882Z,5.25
2018-01-30T04:21:05.761Z,5.19
2018-01-30T04:22:06.391Z,5.19
2018-01-30T04:23:05.914Z,5.19
2018-01-30T04:24:05.577Z,5.19
2018-01-30T04:25:06.302Z,5.12
2018-01-30T04:26:05.493Z,5.12
2018-01-30T04:27:06.545Z,5.12
2018-01-30T04:28:06.465Z,5.06
2018-01-30T04:29:06.144Z,5.06
2018-01-30T04:30:05.891Z,5.06
2018-01-30T04:31:05.753Z,5.06
2018-01-30T04:32:05.994Z,5.00
2018-01-30T04:33:05.591Z,5.00
2018-01-30T04:34:06.150Z,5.00
2018-01-30T04:35:05.683Z,4.94
2018-01-30T04:36:06.375Z,4.94
2018-01-30T04:37:05.583Z,4.94
2018-01-30T04:38:06.061Z,4.88
2018-01-30T04:39:06.164Z,4.88
2018-01-30T04:40:05.815Z,4.88
2018-01-30T04:41:05.936Z,4.88
2018-01-30T04:42:11.063Z,4.81
2018-01-30T04:43:11.163Z,4.81
2018-01-30T04:44:05.977Z,4.81
2018-01-30T04:45:06.618Z,4.81
2018-01-30T04:46:05.504Z,4.81
2018-01-30T04:47:06.016Z,4.81
2018-01-30T04:48:05.994Z,4.75
2018-01-30T04:49:06.629Z,4.75
2018-01-30T04:50:06.065Z,4.75
2018-01-30T04:51:05.989Z,4.75
2018-01-30T04:52:05.580Z,4.69
2018-01-30T04:53:05.504Z,4.69
2018-01-30T04:54:05.736Z,4.69
2018-01-30T04:55:05.983Z,4.69
2018-01-30T04:56:06.058Z,4.62
2018-01-30T04:57:05.909Z,4.62
2018-01-30T04:58:05.675Z,4.62
2018-01-30T04:59:06.241Z,4.62
2018-01-30T05:00:05.709Z,4.62
2018-01-30T05:01:05.509Z,4.62
2018-01-30T05:02:06.289Z,4.56
2018-01-30T05:03:06.148Z,4.56
2018-01-30T05:04:06.415Z,4.56
2018-01-30T05:05:05.505Z,4.56
2018-01-30T05:06:06.068Z,4.50
2018-01-30T05:07:06.623Z,4.50
2018-01-30T05:08:06.079Z,4.50
2018-01-30T05:09:06.378Z,4.50
2018-01-30T05:10:06.229Z,4.50
2018-01-30T05:11:06.159Z,4.50
2018-01-30T05:12:06.390Z,4.50
2018-01-30T05:13:06.132Z,4.44
2018-01-30T05:14:05.500Z,4.44
2018-01-30T05:15:10.673Z,4.44
2018-01-30T05:16:06.145Z,4.44
2018-01-30T05:17:10.962Z,4.44
2018-01-30T05:18:05.507Z,4.38
2018-01-30T05:19:06.491Z,4.44
2018-01-30T05:20:06.588Z,4.38
2018-01-30T05:21:06.391Z,4.38
2018-01-30T05:22:05.837Z,4.38
2018-01-30T05:23:05.761Z,4.38
2018-01-30T05:24:05.515Z,4.31
2018-01-30T05:25:06.436Z,4.31
2018-01-30T05:26:06.292Z,4.31
2018-01-30T05:27:05.917Z,4.31
2018-01-30T05:28:06.224Z,4.31
2018-01-30T05:29:05.820Z,4.31
2018-01-30T05:30:07.116Z,4.31
2018-01-30T05:31:06.232Z,4.31
2018-01-30T05:32:06.198Z,4.31
2018-01-30T05:33:06.310Z,4.31
2018-01-30T05:34:05.921Z,4.31
2018-01-30T05:35:05.647Z,4.25
2018-01-30T05:36:06.153Z,4.25
2018-01-30T05:37:06.222Z,4.25
2018-01-30T05:38:06.311Z,4.25
2018-01-30T05:39:06.237Z,4.25
2018-01-30T05:40:11.392Z,4.25
2018-01-30T05:41:06.854Z,4.31
2018-01-30T05:42:06.014Z,4.25
2018-01-30T05:43:05.990Z,4.31
2018-01-30T05:44:05.838Z,4.31
2018-01-30T05:45:05.767Z,4.25
2018-01-30T05:46:06.385Z,4.31
2018-01-30T05:47:06.386Z,4.31
2018-01-30T05:48:06.314Z,4.31
2018-01-30T05:49:11.386Z,4.31
2018-01-30T05:50:06.240Z,4.31
2018-01-30T05:51:10.599Z,4.31
2018-01-30T05:52:06.461Z,4.31
2018-01-30T05:53:06.312Z,4.31
2018-01-30T05:54:05.905Z,4.31
2018-01-30T05:55:05.905Z,4.38
2018-01-30T05:56:06.010Z,4.38
2018-01-30T05:57:06.043Z,4.38
2018-01-30T05:58:05.584Z,4.38
2018-01-30T05:59:05.543Z,4.38
2018-01-30T06:00:05.736Z,4.38
2018-01-30T06:01:05.931Z,4.38
2018-01-30T06:02:05.666Z,4.38
2018-01-30T06:03:06.220Z,4.44
2018-01-30T06:04:06.386Z,4.44
2018-01-30T06:05:06.228Z,4.38
2018-01-30T06:06:06.067Z,4.44
2018-01-30T06:07:05.834Z,4.44
2018-01-30T06:08:05.784Z,4.44
2018-01-30T06:09:05.826Z,4.44
2018-01-30T06:10:11.786Z,4.38
2018-01-30T06:11:05.818Z,4.38
2018-01-30T06:12:05.819Z,4.38
2018-01-30T06:13:05.647Z,4.44
2018-01-30T06:14:05.428Z,4.44
2018-01-30T06:15:05.865Z,4.44
2018-01-30T06:16:06.179Z,4.44
2018-01-30T06:17:06.462Z,4.44
2018-01-30T06:18:06.461Z,4.44
2018-01-30T06:19:05.898Z,4.44
2018-01-30T06:20:05.674Z,4.44
2018-01-30T06:21:06.530Z,4.44
2018-01-30T06:22:05.837Z,4.44
2018-01-30T06:23:05.990Z,4.44
2018-01-30T06:24:05.976Z,4.44
2018-01-30T06:25:05.765Z,4.44
2018-01-30T06:26:06.331Z,4.44
2018-01-30T06:27:06.381Z,4.44
2018-01-30T06:28:11.513Z,4.44
2018-01-30T06:29:06.068Z,4.44
2018-01-30T06:30:05.810Z,4.44
2018-01-30T06:31:05.836Z,4.44
2018-01-30T06:32:05.902Z,4.44
2018-01-30T06:33:06.062Z,4.44
2018-01-30T06:34:05.658Z,4.44
2018-01-30T06:35:06.229Z,4.44
2018-01-30T06:36:06.492Z,4.44
2018-01-30T06:37:11.505Z,4.44
2018-01-30T06:38:06.176Z,4.44
2018-01-30T06:39:05.908Z,4.38
2018-01-30T06:40:05.625Z,4.38
2018-01-30T06:41:06.811Z,4.38
2018-01-30T06:42:06.153Z,4.38
2018-01-30T06:43:06.162Z,4.38
2018-01-30T06:44:05.831Z,4.38
2018-01-30T06:45:06.545Z,4.38
2018-01-30T06:46:06.468Z,4.31
2018-01-30T06:47:05.859Z,4.31
2018-01-30T06:48:05.660Z,4.31
2018-01-30T06:49:06.149Z,4.31
2018-01-30T06:50:06.217Z,4.31
2018-01-30T06:51:11.078Z,4.25
2018-01-30T06:52:05.895Z,4.25
2018-01-30T06:53:06.231Z,4.25
2018-01-30T06:54:06.059Z,4.25
2018-01-30T06:55:06.376Z,4.25
2018-01-30T06:56:05.985Z,4.25
2018-01-30T06:57:06.091Z,4.25
2018-01-30T06:58:06.389Z,4.25
2018-01-30T06:59:05.761Z,4.25
2018-01-30T07:00:06.073Z,4.19
2018-01-30T07:01:05.655Z,4.19
2018-01-30T07:02:07.182Z,4.19
2018-01-30T07:03:05.775Z,4.19
2018-01-30T07:04:06.380Z,4.19
2018-01-30T07:05:05.821Z,4.19
2018-01-30T07:06:05.586Z,4.19
2018-01-30T07:07:05.822Z,4.12
2018-01-30T07:08:06.147Z,4.12
2018-01-30T07:09:06.066Z,4.12
2018-01-30T07:10:06.053Z,4.12
2018-01-30T07:11:06.223Z,4.12
2018-01-30T07:12:06.074Z,4.12
2018-01-30T07:13:05.831Z,4.12
2018-01-30T07:14:05.606Z,4.12
2018-01-30T07:15:06.091Z,4.06
2018-01-30T07:16:05.680Z,4.06
2018-01-30T07:17:05.730Z,4.06
2018-01-30T07:18:05.718Z,4.06
2018-01-30T07:19:06.473Z,4.06
2018-01-30T07:20:11.015Z,4.06
2018-01-30T07:21:05.581Z,4.06
2018-01-30T07:22:05.739Z,4.06
2018-01-30T07:23:05.607Z,4.06
2018-01-30T07:24:05.992Z,4.06
2018-01-30T07:25:06.056Z,4.06
2018-01-30T07:26:06.009Z,4.06
2018-01-30T07:27:05.646Z,4.06
2018-01-30T07:28:06.484Z,4.06
2018-01-30T07:29:13.305Z,4.06
2018-01-30T07:30:05.968Z,4.06
2018-01-30T07:31:06.136Z,4.06
2018-01-30T07:32:06.549Z,4.00
2018-01-30T07:33:06.629Z,4.06
2018-01-30T07:34:05.906Z,4.06
2018-01-30T07:35:06.391Z,4.06
2018-01-30T07:36:06.140Z,4.06
2018-01-30T07:37:06.329Z,4.06
2018-01-30T07:38:06.148Z,4.06
2018-01-30T07:39:06.467Z,4.06
2018-01-30T07:40:05.844Z,4.06
2018-01-30T07:41:05.610Z,4.12
2018-01-30T07:42:06.158Z,4.12
2018-01-30T07:43:05.911Z,4.12
2018-01-30T07:44:05.983Z,4.12
2018-01-30T07:45:06.954Z,4.19
2018-01-30T07:46:05.931Z,4.19
2018-01-30T07:47:05.666Z,4.19
2018-01-30T07:48:06.319Z,4.19
2018-01-30T07:49:06.379Z,4.25
2018-01-30T07:50:06.121Z,4.25
2018-01-30T07:51:06.064Z,4.25
2018-01-30T07:52:06.457Z,4.31
2018-01-30T07:53:05.916Z,4.31
2018-01-30T07:54:06.153Z,4.31
2018-01-30T07:55:06.228Z,4.38
2018-01-30T07:56:05.981Z,4.38
2018-01-30T07:57:05.572Z,4.44
2018-01-30T07:58:05.853Z,4.44
2018-01-30T07:59:05.910Z,4.44
2018-01-30T08:00:05.577Z,4.50
2018-01-30T08:01:06.529Z,4.56
2018-01-30T08:02:06.456Z,4.56
2018-01-30T08:03:07.362Z,4.62
2018-01-30T08:04:05.989Z,4.69
2018-01-30T08:05:05.666Z,4.69
2018-01-30T08:06:11.192Z,4.75
2018-01-30T08:07:05.745Z,4.75
2018-01-30T08:08:05.702Z,4.81
2018-01-30T08:09:05.676Z,4.81
2018-01-30T08:10:06.053Z,4.88
2018-01-30T08:11:05.676Z,4.88
2018-01-30T08:12:06.302Z,4.88
2018-01-30T08:13:06.493Z,4.88
2018-01-30T08:14:05.582Z,4.88
2018-01-30T08:15:05.734Z,4.88
2018-01-30T08:16:05.675Z,4.94
2018-01-30T08:17:06.301Z,4.94
2018-01-30T08:18:05.956Z,4.94
2018-01-30T08:19:10.694Z,4.94
2018-01-30T08:20:05.808Z,4.94
2018-01-30T08:21:06.072Z,4.94
2018-01-30T08:22:05.504Z,4.88
2018-01-30T08:23:05.507Z,4.94
2018-01-30T08:24:06.157Z,4.88
2018-01-30T08:25:06.279Z,4.88
2018-01-30T08:26:06.065Z,4.88
2018-01-30T08:27:05.495Z,4.88
2018-01-30T08:28:05.842Z,4.88
2018-01-30T08:29:06.229Z,4.88
2018-01-30T08:30:05.974Z,4.88
2018-01-30T08:31:11.075Z,4.88
2018-01-30T08:32:05.901Z,4.88
2018-01-30T08:33:06.146Z,4.88
2018-01-30T08:34:06.374Z,4.88
2018-01-30T08:35:05.504Z,4.88
2018-01-30T08:36:06.414Z,4.88
2018-01-30T08:37:06.006Z,4.88
2018-01-30T08:38:05.973Z,4.88
2018-01-30T08:39:05.748Z,4.88
2018-01-30T08:40:05.669Z,4.88
2018-01-30T08:41:06.550Z,4.88
2018-01-30T08:42:05.497Z,4.88
2018-01-30T08:43:05.600Z,4.88
2018-01-30T08:44:06.304Z,4.88
2018-01-30T08:45:05.981Z,4.94
2018-01-30T08:46:06.390Z,4.94
2018-01-30T08:47:06.058Z,4.94
2018-01-30T08:48:06.303Z,4.94
2018-01-30T08:49:06.244Z,4.94
2018-01-30T08:50:06.225Z,4.94
2018-01-30T08:51:06.065Z,4.94
2018-01-30T08:52:06.150Z,4.94
2018-01-30T08:53:06.161Z,5.00
2018-01-30T08:54:05.687Z,5.00
2018-01-30T08:55:05.500Z,5.00
2018-01-30T08:56:05.770Z,5.00
2018-01-30T08:57:06.311Z,5.00
2018-01-30T08:58:05.982Z,5.06
2018-01-30T08:59:05.667Z,5.06
2018-01-30T09:00:06.465Z,5.06
2018-01-30T09:01:05.675Z,5.12
2018-01-30T09:02:05.747Z,5.12
2018-01-30T09:03:05.502Z,5.12
2018-01-30T09:04:05.594Z,5.12
2018-01-30T09:05:06.303Z,5.12
2018-01-30T09:06:06.577Z,5.12
2018-01-30T09:07:05.900Z,5.12
2018-01-30T09:08:06.435Z,5.19
2018-01-30T09:09:05.836Z,5.19
2018-01-30T09:10:06.388Z,5.19
2018-01-30T09:11:06.132Z,5.19
2018-01-30T09:12:06.070Z,5.19
2018-01-30T09:13:05.818Z,5.19
2018-01-30T09:14:06.386Z,5.25
2018-01-30T09:15:05.767Z,5.25
2018-01-30T09:16:06.148Z,5.25
2018-01-30T09:17:06.066Z,5.25
2018-01-30T09:18:05.902Z,5.25
2018-01-30T09:19:06.216Z,5.25
2018-01-30T09:20:11.515Z,5.25
2018-01-30T09:21:11.457Z,5.31
2018-01-30T09:22:06.426Z,5.31
2018-01-30T09:23:05.963Z,5.38
2018-01-30T09:24:05.742Z,5.38
2018-01-30T09:25:06.304Z,5.38
2018-01-30T09:26:10.868Z,5.44
2018-01-30T09:27:05.507Z,5.44
2018-01-30T09:28:06.393Z,5.44
2018-01-30T09:29:05.743Z,5.44
2018-01-30T09:30:05.892Z,5.50
2018-01-30T09:31:05.739Z,5.50
2018-01-30T09:32:05.920Z,5.50
2018-01-30T09:33:05.682Z,5.56
2018-01-30T09:34:06.523Z,5.56
2018-01-30T09:35:06.238Z,5.56
2018-01-30T09:36:05.558Z,5.62
2018-01-30T09:37:06.223Z,5.62
2018-01-30T09:38:05.945Z,5.62
2018-01-30T09:39:05.829Z,5.69
2018-01-30T09:40:06.298Z,5.69
2018-01-30T09:41:05.529Z,5.75
2018-01-30T09:42:06.614Z,5.75
2018-01-30T09:43:06.436Z,5.81
2018-01-30T09:44:05.420Z,5.81
2018-01-30T09:45:06.298Z,5.88
2018-01-30T09:46:06.010Z,5.88
2018-01-30T09:47:05.751Z,5.88
2018-01-30T09:48:05.821Z,5.88
2018-01-30T09:49:05.671Z,5.88
2018-01-30T09:50:05.904Z,5.94
2018-01-30T09:51:05.926Z,5.94
2018-01-30T09:52:05.983Z,5.94
2018-01-30T09:53:05.836Z,5.94
2018-01-30T09:54:05.682Z,5.94
2018-01-30T09:55:06.461Z,5.94
2018-01-30T09:56:06.232Z,5.94
2018-01-30T09:57:05.961Z,6.00
2018-01-30T09:58:06.222Z,6.00
2018-01-30T09:59:05.752Z,6.00
2018-01-30T10:00:05.989Z,6.00
2018-01-30T10:01:06.552Z,6.00
2018-01-30T10:02:06.723Z,6.00
2018-01-30T10:03:06.140Z,6.00
2018-01-30T10:04:06.239Z,6.06
2018-01-30T10:05:05.836Z,6.06
2018-01-30T10:06:06.231Z,6.06
2018-01-30T10:07:05.831Z,6.06
2018-01-30T10:08:05.834Z,6.06
2018-01-30T10:09:05.533Z,6.06
2018-01-30T10:10:05.546Z,6.06
2018-01-30T10:11:06.539Z,6.06
2018-01-30T10:12:06.403Z,6.06
2018-01-30T10:13:06.061Z,6.06
2018-01-30T10:14:06.235Z,6.06
2018-01-30T10:15:06.237Z,6.06
2018-01-30T10:16:05.672Z,6.06
2018-01-30T10:17:05.744Z,6.06
2018-01-30T10:18:06.062Z,6.06
2018-01-30T10:19:10.826Z,6.06
2018-01-30T10:20:06.789Z,6.06
2018-01-30T10:21:06.143Z,6.06
2018-01-30T10:22:06.332Z,6.06
2018-01-30T10:23:06.069Z,6.06
2018-01-30T10:24:06.329Z,6.06
2018-01-30T10:25:06.058Z,6.00
2018-01-30T10:26:05.662Z,6.00
2018-01-30T10:27:05.752Z,6.00
2018-01-30T10:28:06.646Z,6.00
2018-01-30T10:29:06.444Z,6.00
2018-01-30T10:30:05.981Z,6.00
2018-01-30T10:31:11.211Z,6.00
2018-01-30T10:32:06.074Z,6.00
2018-01-30T10:33:05.771Z,6.00
2018-01-30T10:34:06.388Z,6.00
2018-01-30T10:35:05.988Z,6.06
2018-01-30T10:36:05.520Z,6.06
2018-01-30T10:37:06.472Z,6.06
2018-01-30T10:38:06.317Z,6.06
2018-01-30T10:39:05.826Z,6.06
2018-01-30T10:40:05.942Z,6.06
2018-01-30T10:41:05.845Z,6.12
2018-01-30T10:42:06.228Z,6.12
2018-01-30T10:43:06.220Z,6.12
2018-01-30T10:44:05.502Z,6.12
2018-01-30T10:45:05.837Z,6.12
2018-01-30T10:46:10.828Z,6.19
2018-01-30T10:47:06.454Z,6.19
2018-01-30T10:48:06.299Z,6.19
2018-01-30T10:49:06.321Z,6.19
2018-01-30T10:50:06.350Z,6.25
2018-01-30T10:51:06.156Z,6.25
2018-01-30T10:52:05.672Z,6.25
2018-01-30T10:53:06.100Z,6.25
2018-01-30T10:54:05.946Z,6.31
2018-01-30T10:55:05.626Z,6.31
2018-01-30T10:56:06.154Z,6.31
2018-01-30T10:57:06.299Z,6.38
2018-01-30T10:58:06.475Z,6.38
2018-01-30T10:59:11.327Z,6.38
2018-01-30T11:00:06.087Z,6.44
2018-01-30T11:01:06.146Z,6.44
2018-01-30T11:02:05.824Z,6.44
2018-01-30T11:03:11.633Z,6.44
2018-01-30T11:04:06.552Z,6.44
2018-01-30T11:05:06.376Z,6.50
2018-01-30T11:06:06.145Z,6.50
2018-01-30T11:07:05.825Z,6.50
2018-01-30T11:08:05.832Z,6.56
2018-01-30T11:09:06.463Z,6.56
2018-01-30T11:10:06.270Z,6.56
2018-01-30T11:11:05.830Z,6.62
2018-01-30T11:12:06.126Z,6.62
2018-01-30T11:13:05.829Z,6.62
2018-01-30T11:14:05.821Z,6.69
2018-01-30T11:15:05.916Z,6.69
2018-01-30T11:16:10.929Z,6.69
2018-01-30T11:17:05.720Z,6.69
2018-01-30T11:18:06.552Z,6.69
2018-01-30T11:19:11.238Z,6.69
2018-01-30T11:20:06.208Z,6.75
2018-01-30T11:21:05.579Z,6.75
2018-01-30T11:22:05.583Z,6.69
2018-01-30T11:23:06.325Z,6.75
2018-01-30T11:24:10.908Z,6.75
2018-01-30T11:25:05.734Z,6.75
2018-01-30T11:26:06.403Z,6.81
2018-01-30T11:27:11.252Z,6.81
2018-01-30T11:28:06.042Z,6.88
2018-01-30T11:29:06.020Z,6.88
2018-01-30T11:30:06.175Z,6.88
2018-01-30T11:31:05.751Z,6.88
2018-01-30T11:32:05.683Z,6.88
2018-01-30T11:33:06.216Z,6.88
2018-01-30T11:34:05.744Z,6.94
2018-01-30T11:35:06.239Z,6.94
2018-01-30T11:36:05.793Z,6.94
2018-01-30T11:37:05.657Z,6.94
2018-01-30T11:38:06.147Z,7.00
2018-01-30T11:39:06.111Z,7.00
2018-01-30T11:40:06.165Z,7.00
2018-01-30T11:41:06.081Z,7.00
2018-01-30T11:42:05.913Z,7.00
2018-01-30T11:43:10.856Z,7.06
2018-01-30T11:44:05.654Z,7.06
2018-01-30T11:45:06.410Z,7.06
2018-01-30T11:46:06.238Z,7.12
2018-01-30T11:47:06.388Z,7.12
2018-01-30T11:48:05.692Z,7.12
2018-01-30T11:49:05.994Z,7.12
2018-01-30T11:50:06.428Z,7.12
2018-01-30T11:51:06.581Z,7.12
2018-01-30T11:52:06.088Z,7.12
2018-01-30T11:53:05.968Z,7.19
2018-01-30T11:54:05.879Z,7.12
2018-01-30T11:55:11.320Z,7.19
2018-01-30T11:56:06.494Z,7.19
2018-01-30T11:57:05.544Z,7.19
2018-01-30T11:58:05.835Z,7.19
2018-01-30T11:59:06.497Z,7.19
2018-01-30T12:00:10.664Z,7.19
2018-01-30T12:01:06.789Z,7.19
2018-01-30T12:02:05.939Z,7.19
2018-01-30T12:03:05.721Z,7.25
2018-01-30T12:04:05.518Z,7.25
2018-01-30T12:05:05.993Z,7.25
2018-01-30T12:06:06.569Z,7.25
2018-01-30T12:07:05.637Z,7.25
2018-01-30T12:08:06.561Z,7.19
2018-01-30T12:09:05.914Z,7.25
2018-01-30T12:10:05.821Z,7.19
2018-01-30T12:11:05.899Z,7.25
2018-01-30T12:12:10.950Z,7.25
2018-01-30T12:13:06.312Z,7.25
2018-01-30T12:14:06.310Z,7.25
2018-01-30T12:15:05.746Z,7.25
2018-01-30T12:16:05.977Z,7.25
2018-01-30T12:17:05.695Z,7.25
2018-01-30T12:18:05.578Z,7.25
2018-01-30T12:19:06.707Z,7.25
2018-01-30T12:20:06.315Z,7.25
2018-01-30T12:21:11.008Z,7.31
2018-01-30T12:22:06.313Z,7.31
2018-01-30T12:23:06.337Z,7.31
2018-01-30T12:24:05.837Z,7.31
2018-01-30T12:25:05.521Z,7.31
2018-01-30T12:26:05.699Z,7.31
2018-01-30T12:27:05.759Z,7.31
2018-01-30T12:28:05.919Z,7.31
2018-01-30T12:29:05.985Z,7.31
2018-01-30T12:30:06.485Z,7.38
2018-01-30T12:31:11.323Z,7.38
2018-01-30T12:32:11.352Z,7.38
2018-01-30T12:33:06.234Z,7.38
2018-01-30T12:34:06.326Z,7.38
2018-01-30T12:35:06.133Z,7.38
2018-01-30T12:36:10.905Z,7.38
2018-01-30T12:37:05.677Z,7.38
2018-01-30T12:38:06.179Z,7.38
2018-01-30T12:39:05.984Z,7.38
2018-01-30T12:40:06.001Z,7.38
2018-01-30T12:41:05.704Z,7.44
2018-01-30T12:42:06.316Z,7.44
2018-01-30T12:43:06.384Z,7.44
2018-01-30T12:44:05.940Z,7.44
2018-01-30T12:45:06.300Z,7.44
2018-01-30T12:46:05.746Z,7.44
2018-01-30T12:47:05.641Z,7.44
2018-01-30T12:48:05.574Z,7.44
2018-01-30T12:49:06.254Z,7.44
2018-01-30T12:50:06.019Z,7.44
2018-01-30T12:51:06.476Z,7.44
2018-01-30T12:52:07.193Z,7.44
2018-01-30T12:53:06.319Z,7.50
2018-01-30T12:54:11.778Z,7.50
2018-01-30T12:55:06.628Z,7.50
2018-01-30T12:56:06.069Z,7.50
2018-01-30T12:57:05.901Z,7.50
2018-01-30T12:58:05.937Z,7.50
2018-01-30T12:59:06.065Z,7.56
2018-01-30T13:00:05.509Z,7.50
2018-01-30T13:01:05.585Z,7.50
2018-01-30T13:02:05.597Z,7.50
2018-01-30T13:03:06.203Z,7.56
2018-01-30T13:04:06.370Z,7.56
2018-01-30T13:05:05.666Z,7.56
2018-01-30T13:06:05.421Z,7.56
2018-01-30T13:07:06.229Z,7.56
2018-01-30T13:08:15.911Z,7.56
2018-01-30T13:09:11.356Z,7.56
2018-01-30T13:10:06.027Z,7.56
2018-01-30T13:11:05.672Z,7.56
2018-01-30T13:12:05.829Z,7.56
2018-01-30T13:13:06.053Z,7.56
2018-01-30T13:14:05.912Z,7.56
2018-01-30T13:15:05.983Z,7.56
2018-01-30T13:16:06.012Z,7.56
2018-01-30T13:17:05.822Z,7.56
2018-01-30T13:18:06.461Z,7.56